createdAt,value
2022-12-19T00:01:31.258Z,28.17
2022-12-19T00:04:01.898Z,32.40
2022-12-19T00:09:05.356Z,21.30
2022-12-19T00:11:35.094Z,19.65
2022-12-19T00:14:04.418Z,30.10
2022-12-19T00:16:35.211Z,37.85
2022-12-19T00:19:04.654Z,32.70
2022-12-19T00:21:35.628Z,40.17
2022-12-19T00:24:05.215Z,36.05
2022-12-19T00:26:41.780Z,31.05
2022-12-19T00:29:14.389Z,37.22
2022-12-19T00:31:45.587Z,32.17
2022-12-19T00:34:14.963Z,38.42
2022-12-19T00:36:44.407Z,35.22
2022-12-19T00:39:13.657Z,36.33
2022-12-19T00:41:43.822Z,33.58
2022-12-19T00:44:14.754Z,39.83
2022-12-19T00:46:52.702Z,38.25
2022-12-19T00:49:22.548Z,41.67
2022-12-19T00:51:51.909Z,39.83
2022-12-19T00:54:21.167Z,46.88
2022-12-19T00:56:50.772Z,40.00
2022-12-19T00:59:23.941Z,39.05
2022-12-19T01:04:28.579Z,36.17
2022-12-19T01:07:02.127Z,32.58
2022-12-19T01:09:32.986Z,34.40
2022-12-19T01:12:19.430Z,36.50
2022-12-19T01:14:50.323Z,37.75
2022-12-19T01:17:21.068Z,38.55
2022-12-19T01:19:50.440Z,35.63
2022-12-19T01:22:19.742Z,38.70
2022-12-19T01:24:48.939Z,37.42
2022-12-19T01:27:18.450Z,30.00
2022-12-19T01:29:52.247Z,35.92
2022-12-19T01:32:23.988Z,32.72
2022-12-19T01:34:53.269Z,47.92
2022-12-19T01:37:22.808Z,36.47
2022-12-19T01:39:52.091Z,43.10
2022-12-19T01:42:24.254Z,45.38
2022-12-19T01:45:33.838Z,38.78
2022-12-19T01:48:16.684Z,46.22
2022-12-19T01:51:01.302Z,40.78
2022-12-19T01:56:08.486Z,28.63
2022-12-19T01:58:40.240Z,33.97
2022-12-19T02:01:09.562Z,28.17
2022-12-19T02:03:41.179Z,35.53
2022-12-19T02:06:11.470Z,36.75
2022-12-19T02:08:42.963Z,37.03
2022-12-19T02:11:12.219Z,26.23
2022-12-19T02:13:41.947Z,31.52
2022-12-19T02:16:23.126Z,29.38
2022-12-19T02:19:06.915Z,27.30
2022-12-19T02:21:47.158Z,34.13
2022-12-19T02:24:53.590Z,25.30
2022-12-19T02:28:04.643Z,20.83
2022-12-19T02:30:55.725Z,35.30
2022-12-19T02:33:32.452Z,35.67
2022-12-19T02:36:08.853Z,29.55
2022-12-19T02:38:46.084Z,22.27
2022-12-19T02:41:20.750Z,34.42
2022-12-19T02:43:53.204Z,34.20
2022-12-19T02:46:30.546Z,37.10
2022-12-19T02:49:00.794Z,32.03
2022-12-19T02:51:30.126Z,31.23
2022-12-19T02:53:59.773Z,32.30
2022-12-19T02:56:42.178Z,26.20
2022-12-19T02:59:23.544Z,38.72
2022-12-19T03:01:59.558Z,26.65
2022-12-19T03:04:42.202Z,28.58
2022-12-19T03:07:18.174Z,33.92
2022-12-19T03:09:54.440Z,25.30
2022-12-19T03:12:30.951Z,23.70
2022-12-19T03:15:01.958Z,30.58
2022-12-19T03:17:37.418Z,27.27
2022-12-19T03:20:11.973Z,24.88
2022-12-19T03:22:41.331Z,25.63
2022-12-19T03:25:11.197Z,24.85
2022-12-19T03:27:42.166Z,29.30
2022-12-19T03:30:14.391Z,28.02
2022-12-19T03:32:48.266Z,45.15
2022-12-19T03:35:22.534Z,55.58
2022-12-19T03:37:53.873Z,42.42
2022-12-19T03:40:26.714Z,63.35
2022-12-19T03:43:12.721Z,60.10
2022-12-19T03:45:59.455Z,81.22
2022-12-19T03:48:35.455Z,62.97
2022-12-19T03:51:14.711Z,68.90
2022-12-19T03:53:52.254Z,66.15
2022-12-19T03:56:28.161Z,47.55
2022-12-19T03:59:03.978Z,43.83
2022-12-19T04:01:36.399Z,26.02
2022-12-19T04:04:15.375Z,19.02
2022-12-19T04:06:45.899Z,30.67
2022-12-19T04:09:22.156Z,38.45
2022-12-19T04:11:55.946Z,36.90
2022-12-19T04:14:30.517Z,33.17
2022-12-19T04:17:08.956Z,31.70
2022-12-19T04:19:45.920Z,29.92
2022-12-19T04:22:23.127Z,30.58
2022-12-19T04:24:54.506Z,35.33
2022-12-19T04:27:24.679Z,30.27
2022-12-19T04:29:57.701Z,34.25
2022-12-19T04:32:28.932Z,29.83
2022-12-19T04:35:03.788Z,32.60
2022-12-19T04:37:33.591Z,27.35
2022-12-19T04:40:02.894Z,34.83
2022-12-19T04:42:32.072Z,24.45
2022-12-19T04:45:01.338Z,24.23
2022-12-19T04:47:30.466Z,32.67
2022-12-19T04:50:00.998Z,24.10
2022-12-19T04:52:30.095Z,32.88
2022-12-19T04:54:59.386Z,24.45
2022-12-19T04:57:34.118Z,32.33
2022-12-19T05:00:07.787Z,27.77
2022-12-19T05:02:37.223Z,28.42
2022-12-19T05:05:08.414Z,25.42
2022-12-19T05:07:37.688Z,28.00
2022-12-19T05:10:08.214Z,31.00
2022-12-19T05:12:37.475Z,30.75
2022-12-19T05:15:09.712Z,20.85
2022-12-19T05:17:41.464Z,26.98
2022-12-19T05:20:13.367Z,28.50
2022-12-19T05:22:43.409Z,19.88
2022-12-19T05:25:12.676Z,29.08
2022-12-19T05:27:41.871Z,25.58
2022-12-19T05:30:11.974Z,29.02
2022-12-19T05:32:41.126Z,30.67
2022-12-19T05:35:12.002Z,32.42
2022-12-19T05:37:41.186Z,30.98
2022-12-19T05:40:11.406Z,41.20
2022-12-19T05:42:40.505Z,29.88
2022-12-19T05:45:10.790Z,41.33
2022-12-19T05:47:40.003Z,49.28
2022-12-19T05:50:11.910Z,33.63
2022-12-19T05:52:41.284Z,50.10
2022-12-19T05:55:11.386Z,44.67
2022-12-19T05:57:40.487Z,38.28
2022-12-19T06:00:11.126Z,34.60
2022-12-19T06:02:40.857Z,38.88
2022-12-19T06:05:11.881Z,42.50
2022-12-19T06:07:41.009Z,48.08
2022-12-19T06:10:10.483Z,40.63
2022-12-19T06:12:39.608Z,38.30
2022-12-19T06:15:09.818Z,64.70
2022-12-19T06:17:38.948Z,32.15
2022-12-19T06:20:09.249Z,31.98
2022-12-19T06:22:39.924Z,31.17
2022-12-19T06:25:09.946Z,30.48
2022-12-19T06:27:39.251Z,35.42
2022-12-19T06:30:09.578Z,30.33
2022-12-19T06:32:38.760Z,32.63
2022-12-19T06:35:09.060Z,35.65
2022-12-19T06:37:39.763Z,23.77
2022-12-19T06:40:30.706Z,25.73
2022-12-19T06:42:58.729Z,29.13
2022-12-19T06:45:27.849Z,23.20
2022-12-19T06:47:58.282Z,28.90
2022-12-19T06:50:28.989Z,29.45
2022-12-19T06:53:00.456Z,33.22
2022-12-19T06:55:30.205Z,29.25
2022-12-19T06:57:59.322Z,36.13
2022-12-19T07:00:28.706Z,40.80
2022-12-19T07:02:59.703Z,35.00
2022-12-19T07:05:33.053Z,29.60
2022-12-19T07:08:04.060Z,40.10
2022-12-19T07:10:33.829Z,26.70
2022-12-19T07:13:03.095Z,34.85
2022-12-19T07:15:33.921Z,30.08
2022-12-19T07:18:04.195Z,32.15
2022-12-19T07:20:37.909Z,31.55
2022-12-19T07:23:16.318Z,32.35
2022-12-19T07:25:45.613Z,23.67
2022-12-19T07:28:15.241Z,29.23
2022-12-19T07:30:44.581Z,32.17
2022-12-19T07:33:18.284Z,29.88
2022-12-19T07:35:50.433Z,36.83
2022-12-19T07:38:23.309Z,30.95
2022-12-19T07:40:52.379Z,31.48
2022-12-19T07:43:21.489Z,30.95
2022-12-19T07:45:56.698Z,44.33
2022-12-19T07:48:28.097Z,45.15
2022-12-19T07:50:57.179Z,37.17
2022-12-19T07:53:29.571Z,43.60
2022-12-19T07:55:58.802Z,37.08
2022-12-19T07:58:28.073Z,37.05
2022-12-19T08:00:58.267Z,38.30
2022-12-19T08:03:27.488Z,33.78
2022-12-19T08:06:02.043Z,47.15
2022-12-19T08:08:33.221Z,44.65
2022-12-19T08:11:09.420Z,31.20
2022-12-19T08:13:43.288Z,38.55
2022-12-19T08:16:15.899Z,42.25
2022-12-19T08:18:45.325Z,43.25
2022-12-19T08:21:14.914Z,56.83
2022-12-19T08:23:46.414Z,39.78
2022-12-19T08:26:17.375Z,44.13
2022-12-19T08:28:49.006Z,46.67
2022-12-19T08:31:19.978Z,50.90
2022-12-19T08:33:49.973Z,31.70
2022-12-19T08:36:20.228Z,38.45
2022-12-19T08:38:51.619Z,41.85
2022-12-19T08:41:21.114Z,52.42
2022-12-19T08:43:51.911Z,45.17
2022-12-19T08:46:21.632Z,46.70
2022-12-19T08:48:51.507Z,48.67
2022-12-19T08:51:21.378Z,49.75
2022-12-19T08:53:53.737Z,37.22
2022-12-19T08:56:24.196Z,43.28
2022-12-19T08:58:54.124Z,50.80
2022-12-19T09:01:24.348Z,61.75
2022-12-19T09:05:36.895Z,46.97
2022-12-19T09:06:43.439Z,52.08
2022-12-19T09:09:14.044Z,49.35
2022-12-19T09:11:46.640Z,56.45
2022-12-19T09:14:20.905Z,55.60
2022-12-19T09:16:53.308Z,61.92
2022-12-19T09:19:22.435Z,43.78
2022-12-19T09:21:51.707Z,55.65
2022-12-19T09:24:22.373Z,59.35
2022-12-19T09:26:51.495Z,61.75
2022-12-19T09:29:21.951Z,68.75
2022-12-19T09:31:56.115Z,55.55
2022-12-19T09:34:37.564Z,69.55
2022-12-19T09:37:09.036Z,67.47
2022-12-19T09:39:46.938Z,62.22
2022-12-19T09:42:50.303Z,64.20
2022-12-19T09:45:35.771Z,65.35
2022-12-19T09:48:05.905Z,56.38
2022-12-19T09:50:51.133Z,55.78
2022-12-19T09:53:26.484Z,64.88
2022-12-19T09:56:00.200Z,60.85
2022-12-19T09:58:41.175Z,50.47
2022-12-19T10:01:20.153Z,52.35
2022-12-19T10:03:55.683Z,49.83
2022-12-19T10:07:11.736Z,62.33
2022-12-19T10:11:16.780Z,54.90
2022-12-19T10:12:45.911Z,65.78
2022-12-19T10:15:30.398Z,44.90
2022-12-19T10:18:14.840Z,76.10
2022-12-19T10:20:52.450Z,58.03
2022-12-19T10:23:58.501Z,48.83
2022-12-19T10:26:36.041Z,50.05
2022-12-19T10:29:21.387Z,47.65
2022-12-19T10:31:56.827Z,40.33
2022-12-19T10:34:41.010Z,68.57
2022-12-19T10:37:28.908Z,55.87
2022-12-19T10:40:10.448Z,61.85
2022-12-19T10:42:52.866Z,68.60
2022-12-19T10:45:25.834Z,74.90
2022-12-19T10:47:59.234Z,71.30
2022-12-19T10:50:31.107Z,84.38
2022-12-19T10:53:10.870Z,69.43
2022-12-19T10:55:50.835Z,68.78
2022-12-19T10:58:24.451Z,75.22
2022-12-19T11:01:12.049Z,71.43
2022-12-19T11:03:43.452Z,60.55
2022-12-19T11:07:01.196Z,61.25
2022-12-19T11:09:32.813Z,58.53
2022-12-19T11:15:24.873Z,66.72
2022-12-19T11:21:17.822Z,50.30
2022-12-19T11:24:26.532Z,54.75
2022-12-19T11:29:34.344Z,64.35
2022-12-19T11:29:34.919Z,55.35
2022-12-19T11:30:45.722Z,77.78
2022-12-19T11:32:43.737Z,68.57
2022-12-19T11:35:22.755Z,62.65
2022-12-19T11:37:57.898Z,67.15
2022-12-19T11:40:35.457Z,77.63
2022-12-19T11:46:09.112Z,62.72
2022-12-19T11:48:42.995Z,58.28
2022-12-19T11:51:22.951Z,55.50
2022-12-19T11:54:00.212Z,39.75
2022-12-19T11:56:31.436Z,50.72
2022-12-19T11:59:09.581Z,48.85
2022-12-19T12:01:45.990Z,47.92
2022-12-19T12:04:40.801Z,43.42
2022-12-19T12:07:58.671Z,52.92
2022-12-19T12:15:42.139Z,44.55
2022-12-19T12:24:23.213Z,57.10
2022-12-19T12:27:11.796Z,48.42
2022-12-19T12:31:07.691Z,55.53
2022-12-19T12:31:39.620Z,42.45
2022-12-19T12:31:39.809Z,59.08
2022-12-19T12:31:56.211Z,37.83
2022-12-19T12:35:34.264Z,58.17
2022-12-19T12:40:53.457Z,53.03
2022-12-19T12:43:36.173Z,46.25
2022-12-19T12:46:07.151Z,40.60
2022-12-19T12:48:40.314Z,45.17
2022-12-19T12:51:10.925Z,45.35
2022-12-19T12:53:45.903Z,40.17
2022-12-19T12:56:18.377Z,48.70
2022-12-19T12:59:22.789Z,42.83
2022-12-19T13:01:55.409Z,48.03
2022-12-19T13:04:30.648Z,36.70
2022-12-19T13:07:31.455Z,57.00
2022-12-19T13:10:27.059Z,39.53
2022-12-19T13:15:38.001Z,51.55
2022-12-19T13:18:29.238Z,55.63
2022-12-19T13:20:58.918Z,54.28
2022-12-19T13:23:48.658Z,39.45
2022-12-19T13:26:50.172Z,44.47
2022-12-19T13:29:51.741Z,49.08
2022-12-19T13:32:21.323Z,52.95
2022-12-19T13:35:01.708Z,39.00
2022-12-19T13:39:48.930Z,65.03
2022-12-19T13:40:59.491Z,57.97
2022-12-19T13:43:48.248Z,60.10
2022-12-19T13:46:29.258Z,48.92
2022-12-19T13:49:04.563Z,68.82
2022-12-19T13:51:44.819Z,45.35
2022-12-19T13:54:33.408Z,58.97
2022-12-19T13:57:09.094Z,54.00
2022-12-19T13:59:59.260Z,61.13
2022-12-19T14:02:34.884Z,74.30
2022-12-19T14:05:36.097Z,243.00
2022-12-19T14:08:21.288Z,49.03
2022-12-19T14:11:32.239Z,39.72
2022-12-19T14:14:12.638Z,54.78
2022-12-19T14:16:46.442Z,48.97
2022-12-19T14:19:23.955Z,35.25
2022-12-19T14:22:04.925Z,52.78
2022-12-19T14:24:41.486Z,52.67
2022-12-19T14:28:17.253Z,43.47
2022-12-19T14:30:28.326Z,64.88
2022-12-19T14:33:46.640Z,39.65
2022-12-19T14:36:06.196Z,63.30
2022-12-19T14:39:23.276Z,42.30
2022-12-19T14:42:01.295Z,48.20
2022-12-19T14:53:52.025Z,56.55
2022-12-19T14:54:25.811Z,44.78
2022-12-19T14:54:40.343Z,47.33
2022-12-19T14:59:04.417Z,62.05
2022-12-19T15:01:37.146Z,46.50
2022-12-19T15:04:50.766Z,44.20
2022-12-19T15:07:12.335Z,51.30
2022-12-19T15:10:58.022Z,50.47
2022-12-19T15:14:57.368Z,52.92
2022-12-19T15:16:00.840Z,38.92
2022-12-19T15:18:41.076Z,44.67
2022-12-19T15:21:12.972Z,41.70
2022-12-19T15:23:45.932Z,50.55
2022-12-19T15:26:17.504Z,48.53
2022-12-19T15:28:51.435Z,39.08
2022-12-19T15:31:30.431Z,50.97
2022-12-19T15:34:33.147Z,36.33
2022-12-19T15:36:48.878Z,51.38
2022-12-19T15:39:20.290Z,54.92
2022-12-19T15:41:52.761Z,35.92
2022-12-19T15:44:26.675Z,59.00
2022-12-19T15:46:56.635Z,52.80
2022-12-19T15:49:25.908Z,43.28
2022-12-19T15:51:55.200Z,62.85
2022-12-19T15:57:24.561Z,59.15
2022-12-19T15:59:54.412Z,44.45
2022-12-19T16:02:27.938Z,42.35
2022-12-19T16:05:07.343Z,44.67
2022-12-19T16:07:36.537Z,50.45
2022-12-19T16:10:08.646Z,47.35
2022-12-19T16:12:40.909Z,48.45
2022-12-19T16:15:17.356Z,40.85
2022-12-19T16:17:46.615Z,28.60
2022-12-19T16:20:20.445Z,42.00
2022-12-19T16:22:51.014Z,43.75
2022-12-19T16:25:22.916Z,40.13
2022-12-19T16:27:56.852Z,43.72
2022-12-19T16:30:29.920Z,35.47
2022-12-19T16:32:59.749Z,32.78
2022-12-19T16:38:20.931Z,50.03
2022-12-19T16:40:53.793Z,44.92
2022-12-19T16:43:31.150Z,39.80
2022-12-19T16:46:02.083Z,37.33
2022-12-19T16:48:32.249Z,35.03
2022-12-19T16:51:01.826Z,37.85
2022-12-19T16:53:31.631Z,53.30
2022-12-19T16:56:02.879Z,39.30
2022-12-19T16:58:34.489Z,36.38
2022-12-19T17:01:06.207Z,42.15
2022-12-19T17:03:41.372Z,39.65
2022-12-19T17:06:13.223Z,53.65
2022-12-19T17:08:42.646Z,43.33
2022-12-19T17:11:18.160Z,44.67
2022-12-19T17:13:49.929Z,49.67
2022-12-19T17:16:19.398Z,48.80
2022-12-19T17:18:49.380Z,40.70
2022-12-19T17:21:20.043Z,33.80
2022-12-19T17:23:50.194Z,40.90
2022-12-19T17:26:21.655Z,44.10
2022-12-19T17:28:51.064Z,46.97
2022-12-19T17:31:24.962Z,50.45
2022-12-19T17:33:57.007Z,39.35
2022-12-19T17:36:36.521Z,49.05
2022-12-19T17:39:19.551Z,42.50
2022-12-19T17:41:51.121Z,47.00
2022-12-19T17:44:20.922Z,38.20
2022-12-19T17:46:51.164Z,42.67
2022-12-19T17:49:28.701Z,53.10
2022-12-19T17:51:58.922Z,44.25
2022-12-19T17:54:30.837Z,49.60
2022-12-19T17:57:01.750Z,52.85
2022-12-19T17:59:31.188Z,60.30
2022-12-19T18:02:00.718Z,51.55
2022-12-19T18:04:32.232Z,58.65
2022-12-19T18:07:01.891Z,35.60
2022-12-19T18:09:31.176Z,55.83
2022-12-19T18:12:01.935Z,47.30
2022-12-19T18:14:31.245Z,47.38
2022-12-19T18:17:02.001Z,58.35
2022-12-19T18:19:33.753Z,61.50
2022-12-19T18:22:03.064Z,47.25
2022-12-19T18:24:32.424Z,50.10
2022-12-19T18:27:03.193Z,58.13
2022-12-19T18:29:32.493Z,51.95
2022-12-19T18:32:01.817Z,50.47
2022-12-19T18:34:33.301Z,43.83
2022-12-19T18:37:03.150Z,49.55
2022-12-19T18:39:34.102Z,53.58
2022-12-19T18:42:21.502Z,53.88
2022-12-19T18:44:50.871Z,60.05
2022-12-19T18:47:24.334Z,62.35
2022-12-19T18:49:54.459Z,65.28
2022-12-19T18:52:23.708Z,50.47
2022-12-19T18:54:53.044Z,51.78
2022-12-19T18:57:23.800Z,59.25
2022-12-19T18:59:53.157Z,53.15
2022-12-19T19:02:28.583Z,50.42
2022-12-19T19:04:58.077Z,63.13
2022-12-19T19:07:27.328Z,65.13
2022-12-19T19:09:56.623Z,52.10
2022-12-19T19:12:27.385Z,65.97
2022-12-19T19:14:56.606Z,72.60
2022-12-19T19:17:31.005Z,62.17
2022-12-19T19:20:00.548Z,46.13
2022-12-19T19:22:30.109Z,56.90
2022-12-19T19:25:00.127Z,43.40
2022-12-19T19:27:30.935Z,44.65
2022-12-19T19:30:00.978Z,54.67
2022-12-19T19:32:30.366Z,47.92
2022-12-19T19:34:59.675Z,57.42
2022-12-19T19:37:30.190Z,44.50
2022-12-19T19:39:59.493Z,42.47
2022-12-19T19:42:30.277Z,36.90
2022-12-19T19:44:59.601Z,34.25
2022-12-19T19:47:31.739Z,34.00
2022-12-19T19:50:01.092Z,37.88
2022-12-19T19:52:30.407Z,23.10
2022-12-19T19:54:59.725Z,29.65
2022-12-19T19:57:30.573Z,33.10
2022-12-19T19:59:59.808Z,31.00
2022-12-19T20:02:29.445Z,25.30
2022-12-19T20:04:58.742Z,33.90
2022-12-19T20:07:28.541Z,30.60
2022-12-19T20:09:58.563Z,24.42
2022-12-19T20:12:27.908Z,42.38
2022-12-19T20:14:58.791Z,34.88
2022-12-19T20:17:28.184Z,21.92
2022-12-19T20:19:57.468Z,35.20
2022-12-19T20:22:26.724Z,34.30
2022-12-19T20:24:55.997Z,33.35
2022-12-19T20:27:25.304Z,28.23
2022-12-19T20:29:54.591Z,38.55
2022-12-19T20:32:25.504Z,32.78
2022-12-19T20:34:54.891Z,31.42
2022-12-19T20:37:24.211Z,30.95
2022-12-19T20:39:53.838Z,32.95
2022-12-19T20:42:23.093Z,26.92
2022-12-19T20:44:52.475Z,19.73
2022-12-19T20:47:21.728Z,26.63
2022-12-19T20:49:52.537Z,18.35
2022-12-19T20:52:21.813Z,21.27
2022-12-19T20:54:51.106Z,20.60
2022-12-19T20:57:20.348Z,19.65
2022-12-19T20:59:49.643Z,25.10
2022-12-19T21:02:19.054Z,23.27
2022-12-19T21:04:48.442Z,28.58
2022-12-19T21:07:19.285Z,28.00
2022-12-19T21:09:50.612Z,36.90
2022-12-19T21:12:19.872Z,33.97
2022-12-19T21:14:49.149Z,45.97
2022-12-19T21:17:18.419Z,60.45
2022-12-19T21:19:47.694Z,72.15
2022-12-19T21:22:19.674Z,77.25
2022-12-19T21:24:49.042Z,66.90
2022-12-19T21:27:18.314Z,50.35
2022-12-19T21:29:47.609Z,47.97
2022-12-19T21:32:18.998Z,54.28
2022-12-19T21:34:48.631Z,50.42
2022-12-19T21:37:19.454Z,53.60
2022-12-19T21:39:48.721Z,56.00
2022-12-19T21:42:17.914Z,51.90
2022-12-19T21:44:47.239Z,53.88
2022-12-19T21:47:17.058Z,49.75
2022-12-19T21:49:46.437Z,39.38
2022-12-19T21:52:15.641Z,54.95
2022-12-19T21:54:46.356Z,37.67
2022-12-19T21:57:15.729Z,39.50
2022-12-19T21:59:45.194Z,39.33
2022-12-19T22:02:14.671Z,39.65
2022-12-19T22:04:44.068Z,41.92
2022-12-19T22:07:13.323Z,37.35
2022-12-19T22:09:43.062Z,40.60
2022-12-19T22:12:14.911Z,43.13
2022-12-19T22:14:45.269Z,48.05
2022-12-19T22:17:14.633Z,42.47
2022-12-19T22:19:43.906Z,39.95
2022-12-19T22:22:13.243Z,38.17
2022-12-19T22:24:42.613Z,35.33
2022-12-19T22:27:13.370Z,39.35
2022-12-19T22:29:42.649Z,29.80
2022-12-19T22:32:11.791Z,36.22
2022-12-19T22:34:41.083Z,41.97
2022-12-19T22:37:10.353Z,34.47
2022-12-19T22:39:39.828Z,38.03
2022-12-19T22:42:09.143Z,43.33
2022-12-19T22:44:40.118Z,49.50
2022-12-19T22:47:09.426Z,47.25
2022-12-19T22:49:38.725Z,52.53
2022-12-19T22:52:07.987Z,54.22
2022-12-19T22:54:37.228Z,48.58
2022-12-19T22:57:06.521Z,51.65
2022-12-19T22:59:35.915Z,60.45
2022-12-19T23:02:07.028Z,63.85
2022-12-19T23:04:37.908Z,58.40
2022-12-19T23:07:07.237Z,60.00
2022-12-19T23:09:36.581Z,65.53
2022-12-19T23:12:06.096Z,65.50
2022-12-19T23:14:35.313Z,70.57
2022-12-19T23:17:06.154Z,86.22
2022-12-19T23:19:35.425Z,87.53
2022-12-19T23:22:04.765Z,100.65
2022-12-19T23:24:34.311Z,86.70
2022-12-19T23:27:03.738Z,72.07
2022-12-19T23:29:32.978Z,86.07
2022-12-19T23:32:02.263Z,72.28
2022-12-19T23:34:33.014Z,79.82
2022-12-19T23:37:11.273Z,90.32
2022-12-19T23:39:41.262Z,87.78
2022-12-19T23:42:10.537Z,91.53
2022-12-19T23:44:39.753Z,121.40
2022-12-19T23:47:09.027Z,136.82
2022-12-19T23:49:40.245Z,110.80
2022-12-19T23:52:09.595Z,102.15
2022-12-19T23:54:39.002Z,92.50
2022-12-19T23:57:08.461Z,95.47
2022-12-19T23:59:38.011Z,94.15
